Terminal Aerodrome Forecast
Issued by NWS Jackson, KY

Home | Current Version | Previous Version | Text Only | Print | Product List | Glossary On
Versions: 1 2 3 4 5 6 7 8 9 10 11 12 13 14
791
FTUS43 KJKL 262320
TAFLOZ
TAF
KLOZ 262320Z 2700/2724 20005KT P6SM FEW200
     FM271000 21005KT P6SM BKN030
     FM271200 22004KT P6SM -SHRA BKN020
     FM271900 24007KT P6SM -SHRA VCTS BKN035CB
     FM272100 25007KT P6SM BKN050=

USA.gov is the U.S. government's official web portal to all federal, state and local government web resources and services.